sensor_id;sensor_type;location;lat;lon;timestamp;P1;durP1;ratioP1;P2;durP2;ratioP2
58083;SDS011;43882;51.550;11.858;2024-01-16T00:01:14;16.65;;;4.75;;
58083;SDS011;43882;51.550;11.858;2024-01-16T00:03:41;14.60;;;4.53;;
58083;SDS011;43882;51.550;11.858;2024-01-16T00:06:07;14.35;;;4.00;;
58083;SDS011;43882;51.550;11.858;2024-01-16T00:08:33;14.63;;;4.20;;
58083;SDS011;43882;51.550;11.858;2024-01-16T00:11:01;17.35;;;4.45;;
58083;SDS011;43882;51.550;11.858;2024-01-16T00:13:27;15.25;;;4.18;;
58083;SDS011;43882;51.550;11.858;2024-01-16T00:15:53;15.23;;;4.43;;
58083;SDS011;43882;51.550;11.858;2024-01-16T00:18:21;16.23;;;4.57;;
58083;SDS011;43882;51.550;11.858;2024-01-16T00:20:47;16.10;;;4.05;;
58083;SDS011;43882;51.550;11.858;2024-01-16T00:23:14;16.60;;;4.47;;
58083;SDS011;43882;51.550;11.858;2024-01-16T00:25:40;15.82;;;4.28;;
58083;SDS011;43882;51.550;11.858;2024-01-16T00:28:06;14.88;;;3.92;;
58083;SDS011;43882;51.550;11.858;2024-01-16T00:30:32;12.95;;;3.80;;
58083;SDS011;43882;51.550;11.858;2024-01-16T00:32:58;13.85;;;3.72;;
58083;SDS011;43882;51.550;11.858;2024-01-16T00:35:25;13.60;;;3.80;;
58083;SDS011;43882;51.550;11.858;2024-01-16T00:37:51;16.45;;;4.60;;
58083;SDS011;43882;51.550;11.858;2024-01-16T00:40:17;15.25;;;3.88;;
58083;SDS011;43882;51.550;11.858;2024-01-16T00:42:43;13.70;;;4.00;;
58083;SDS011;43882;51.550;11.858;2024-01-16T00:45:09;13.35;;;3.53;;
58083;SDS011;43882;51.550;11.858;2024-01-16T00:47:35;14.60;;;3.90;;
58083;SDS011;43882;51.550;11.858;2024-01-16T00:50:01;12.77;;;3.33;;
58083;SDS011;43882;51.550;11.858;2024-01-16T00:52:28;12.13;;;3.60;;
58083;SDS011;43882;51.550;11.858;2024-01-16T00:54:54;11.48;;;3.30;;
58083;SDS011;43882;51.550;11.858;2024-01-16T00:57:20;11.23;;;3.20;;
58083;SDS011;43882;51.550;11.858;2024-01-16T00:59:46;11.52;;;3.50;;
58083;SDS011;43882;51.550;11.858;2024-01-16T01:02:13;15.07;;;3.63;;
58083;SDS011;43882;51.550;11.858;2024-01-16T01:04:39;13.60;;;3.50;;
58083;SDS011;43882;51.550;11.858;2024-01-16T01:07:08;12.85;;;3.28;;
58083;SDS011;43882;51.550;11.858;2024-01-16T01:09:37;10.32;;;3.08;;
58083;SDS011;43882;51.550;11.858;2024-01-16T01:12:03;13.18;;;3.40;;
58083;SDS011;43882;51.550;11.858;2024-01-16T01:14:29;13.95;;;3.70;;
58083;SDS011;43882;51.550;11.858;2024-01-16T01:16:56;13.48;;;3.20;;
58083;SDS011;43882;51.550;11.858;2024-01-16T01:19:22;12.52;;;3.30;;
58083;SDS011;43882;51.550;11.858;2024-01-16T01:21:48;11.77;;;3.10;;
58083;SDS011;43882;51.550;11.858;2024-01-16T01:24:15;10.77;;;2.95;;
58083;SDS011;43882;51.550;11.858;2024-01-16T01:26:44;13.25;;;3.35;;
58083;SDS011;43882;51.550;11.858;2024-01-16T01:29:10;15.55;;;3.55;;
58083;SDS011;43882;51.550;11.858;2024-01-16T01:31:36;10.98;;;3.13;;
58083;SDS011;43882;51.550;11.858;2024-01-16T01:34:02;13.73;;;3.15;;
58083;SDS011;43882;51.550;11.858;2024-01-16T01:36:29;13.88;;;3.22;;
58083;SDS011;43882;51.550;11.858;2024-01-16T01:38:55;12.00;;;2.83;;
58083;SDS011;43882;51.550;11.858;2024-01-16T01:41:21;11.80;;;3.22;;
58083;SDS011;43882;51.550;11.858;2024-01-16T01:43:47;10.73;;;2.72;;
58083;SDS011;43882;51.550;11.858;2024-01-16T01:46:17;13.80;;;3.00;;
58083;SDS011;43882;51.550;11.858;2024-01-16T01:48:45;10.40;;;2.97;;
58083;SDS011;43882;51.550;11.858;2024-01-16T01:51:13;9.85;;;2.60;;
58083;SDS011;43882;51.550;11.858;2024-01-16T01:53:41;10.85;;;2.60;;
58083;SDS011;43882;51.550;11.858;2024-01-16T01:56:09;13.57;;;2.85;;
58083;SDS011;43882;51.550;11.858;2024-01-16T01:58:38;11.07;;;3.00;;
58083;SDS011;43882;51.550;11.858;2024-01-16T02:01:05;10.50;;;2.28;;
58083;SDS011;43882;51.550;11.858;2024-01-16T02:03:41;9.82;;;2.40;;
58083;SDS011;43882;51.550;11.858;2024-01-16T02:06:11;8.80;;;2.38;;
58083;SDS011;43882;51.550;11.858;2024-01-16T02:08:38;8.73;;;2.40;;
58083;SDS011;43882;51.550;11.858;2024-01-16T02:11:04;7.82;;;2.20;;
58083;SDS011;43882;51.550;11.858;2024-01-16T02:13:30;10.35;;;2.10;;
58083;SDS011;43882;51.550;11.858;2024-01-16T02:15:57;8.45;;;2.30;;
58083;SDS011;43882;51.550;11.858;2024-01-16T02:18:23;9.38;;;2.25;;
58083;SDS011;43882;51.550;11.858;2024-01-16T02:20:49;6.20;;;2.05;;
58083;SDS011;43882;51.550;11.858;2024-01-16T02:23:15;6.80;;;2.30;;
58083;SDS011;43882;51.550;11.858;2024-01-16T02:25:49;4.50;;;1.75;;
58083;SDS011;43882;51.550;11.858;2024-01-16T02:28:15;5.20;;;1.88;;
58083;SDS011;43882;51.550;11.858;2024-01-16T02:30:42;6.63;;;2.00;;
58083;SDS011;43882;51.550;11.858;2024-01-16T02:33:08;7.57;;;2.05;;
58083;SDS011;43882;51.550;11.858;2024-01-16T02:35:34;7.13;;;2.05;;
58083;SDS011;43882;51.550;11.858;2024-01-16T02:38:00;9.43;;;2.30;;
58083;SDS011;43882;51.550;11.858;2024-01-16T02:40:26;7.68;;;2.30;;
58083;SDS011;43882;51.550;11.858;2024-01-16T02:42:52;5.95;;;2.00;;
58083;SDS011;43882;51.550;11.858;2024-01-16T02:45:18;6.70;;;1.90;;
58083;SDS011;43882;51.550;11.858;2024-01-16T02:47:44;5.63;;;2.03;;
58083;SDS011;43882;51.550;11.858;2024-01-16T02:50:10;8.23;;;2.20;;
58083;SDS011;43882;51.550;11.858;2024-01-16T02:52:36;6.25;;;1.83;;
58083;SDS011;43882;51.550;11.858;2024-01-16T02:55:03;8.40;;;2.08;;
58083;SDS011;43882;51.550;11.858;2024-01-16T02:57:29;7.95;;;2.10;;
58083;SDS011;43882;51.550;11.858;2024-01-16T02:59:56;6.97;;;1.95;;
58083;SDS011;43882;51.550;11.858;2024-01-16T03:02:22;8.48;;;2.25;;
58083;SDS011;43882;51.550;11.858;2024-01-16T03:04:48;7.57;;;2.10;;
58083;SDS011;43882;51.550;11.858;2024-01-16T03:07:15;6.18;;;1.83;;
58083;SDS011;43882;51.550;11.858;2024-01-16T03:09:41;5.82;;;1.92;;
58083;SDS011;43882;51.550;11.858;2024-01-16T03:12:07;5.07;;;1.70;;
58083;SDS011;43882;51.550;11.858;2024-01-16T03:14:33;7.22;;;2.00;;
58083;SDS011;43882;51.550;11.858;2024-01-16T03:17:01;7.90;;;1.90;;
58083;SDS011;43882;51.550;11.858;2024-01-16T03:19:28;7.43;;;2.00;;
58083;SDS011;43882;51.550;11.858;2024-01-16T03:21:54;5.13;;;1.77;;
58083;SDS011;43882;51.550;11.858;2024-01-16T03:24:20;5.03;;;1.80;;
58083;SDS011;43882;51.550;11.858;2024-01-16T03:26:46;6.07;;;1.63;;
58083;SDS011;43882;51.550;11.858;2024-01-16T03:29:12;6.72;;;1.90;;
58083;SDS011;43882;51.550;11.858;2024-01-16T03:31:38;6.43;;;1.75;;
58083;SDS011;43882;51.550;11.858;2024-01-16T03:34:04;7.05;;;1.80;;
58083;SDS011;43882;51.550;11.858;2024-01-16T03:36:30;7.32;;;1.88;;
58083;SDS011;43882;51.550;11.858;2024-01-16T03:38:56;5.93;;;1.83;;
58083;SDS011;43882;51.550;11.858;2024-01-16T03:41:22;5.95;;;1.70;;
58083;SDS011;43882;51.550;11.858;2024-01-16T03:43:48;6.38;;;1.80;;
58083;SDS011;43882;51.550;11.858;2024-01-16T03:46:15;5.20;;;1.70;;
58083;SDS011;43882;51.550;11.858;2024-01-16T03:48:41;8.32;;;2.10;;
58083;SDS011;43882;51.550;11.858;2024-01-16T03:51:08;6.95;;;1.98;;
58083;SDS011;43882;51.550;11.858;2024-01-16T03:53:35;4.35;;;1.58;;
58083;SDS011;43882;51.550;11.858;2024-01-16T03:56:01;4.00;;;1.80;;
58083;SDS011;43882;51.550;11.858;2024-01-16T03:58:27;4.28;;;1.60;;
58083;SDS011;43882;51.550;11.858;2024-01-16T04:00:53;6.80;;;1.80;;
58083;SDS011;43882;51.550;11.858;2024-01-16T04:03:19;4.70;;;1.75;;
58083;SDS011;43882;51.550;11.858;2024-01-16T04:05:45;10.05;;;2.10;;
58083;SDS011;43882;51.550;11.858;2024-01-16T04:08:11;7.38;;;2.05;;
58083;SDS011;43882;51.550;11.858;2024-01-16T04:10:38;7.65;;;2.15;;
58083;SDS011;43882;51.550;11.858;2024-01-16T04:13:04;7.85;;;1.90;;
58083;SDS011;43882;51.550;11.858;2024-01-16T04:15:31;10.60;;;1.70;;
58083;SDS011;43882;51.550;11.858;2024-01-16T04:17:57;8.00;;;2.30;;
58083;SDS011;43882;51.550;11.858;2024-01-16T04:20:23;8.00;;;2.90;;
58083;SDS011;43882;51.550;11.858;2024-01-16T04:22:49;9.27;;;2.08;;
58083;SDS011;43882;51.550;11.858;2024-01-16T04:25:15;7.45;;;1.67;;
58083;SDS011;43882;51.550;11.858;2024-01-16T04:27:41;7.25;;;2.03;;
58083;SDS011;43882;51.550;11.858;2024-01-16T04:30:07;10.93;;;1.95;;
58083;SDS011;43882;51.550;11.858;2024-01-16T04:32:34;8.63;;;2.00;;
58083;SDS011;43882;51.550;11.858;2024-01-16T04:35:00;5.63;;;1.80;;
58083;SDS011;43882;51.550;11.858;2024-01-16T04:37:26;7.28;;;2.00;;
58083;SDS011;43882;51.550;11.858;2024-01-16T04:39:52;7.72;;;2.13;;
58083;SDS011;43882;51.550;11.858;2024-01-16T04:42:19;6.68;;;1.95;;
58083;SDS011;43882;51.550;11.858;2024-01-16T04:44:45;7.50;;;2.00;;
58083;SDS011;43882;51.550;11.858;2024-01-16T04:47:11;10.48;;;2.33;;
58083;SDS011;43882;51.550;11.858;2024-01-16T04:49:37;11.40;;;2.53;;
58083;SDS011;43882;51.550;11.858;2024-01-16T04:52:03;11.93;;;2.58;;
58083;SDS011;43882;51.550;11.858;2024-01-16T04:54:29;7.95;;;2.25;;
58083;SDS011;43882;51.550;11.858;2024-01-16T04:56:55;12.60;;;2.70;;
58083;SDS011;43882;51.550;11.858;2024-01-16T04:59:21;7.55;;;2.10;;
58083;SDS011;43882;51.550;11.858;2024-01-16T05:01:47;9.40;;;2.38;;
58083;SDS011;43882;51.550;11.858;2024-01-16T05:04:13;9.70;;;2.75;;
58083;SDS011;43882;51.550;11.858;2024-01-16T05:06:40;12.75;;;3.15;;
58083;SDS011;43882;51.550;11.858;2024-01-16T05:09:06;15.32;;;3.20;;
58083;SDS011;43882;51.550;11.858;2024-01-16T05:11:34;11.07;;;2.90;;
58083;SDS011;43882;51.550;11.858;2024-01-16T05:14:00;9.15;;;2.60;;
58083;SDS011;43882;51.550;11.858;2024-01-16T05:16:26;10.43;;;2.70;;
58083;SDS011;43882;51.550;11.858;2024-01-16T05:18:53;12.00;;;2.60;;
58083;SDS011;43882;51.550;11.858;2024-01-16T05:21:19;8.10;;;2.30;;
58083;SDS011;43882;51.550;11.858;2024-01-16T05:23:46;12.57;;;2.88;;
58083;SDS011;43882;51.550;11.858;2024-01-16T05:26:12;9.70;;;2.92;;
58083;SDS011;43882;51.550;11.858;2024-01-16T05:28:38;9.65;;;2.50;;
58083;SDS011;43882;51.550;11.858;2024-01-16T05:31:05;11.20;;;2.95;;
58083;SDS011;43882;51.550;11.858;2024-01-16T05:33:32;13.68;;;3.28;;
58083;SDS011;43882;51.550;11.858;2024-01-16T05:35:58;13.85;;;3.20;;
58083;SDS011;43882;51.550;11.858;2024-01-16T05:38:24;12.25;;;3.25;;
58083;SDS011;43882;51.550;11.858;2024-01-16T05:40:50;12.82;;;3.58;;
58083;SDS011;43882;51.550;11.858;2024-01-16T05:43:17;11.00;;;3.40;;
58083;SDS011;43882;51.550;11.858;2024-01-16T05:45:43;12.88;;;3.40;;
58083;SDS011;43882;51.550;11.858;2024-01-16T05:48:09;13.05;;;3.33;;
58083;SDS011;43882;51.550;11.858;2024-01-16T05:50:36;13.40;;;3.53;;
58083;SDS011;43882;51.550;11.858;2024-01-16T05:53:02;14.23;;;3.22;;
58083;SDS011;43882;51.550;11.858;2024-01-16T05:55:28;12.77;;;2.78;;
58083;SDS011;43882;51.550;11.858;2024-01-16T05:57:57;10.55;;;2.85;;
58083;SDS011;43882;51.550;11.858;2024-01-16T06:00:26;7.00;;;2.25;;
58083;SDS011;43882;51.550;11.858;2024-01-16T06:02:52;6.68;;;2.08;;
58083;SDS011;43882;51.550;11.858;2024-01-16T06:05:18;8.82;;;2.35;;
58083;SDS011;43882;51.550;11.858;2024-01-16T06:07:44;9.57;;;2.85;;
58083;SDS011;43882;51.550;11.858;2024-01-16T06:10:13;6.88;;;1.90;;
58083;SDS011;43882;51.550;11.858;2024-01-16T06:12:40;8.10;;;2.10;;
58083;SDS011;43882;51.550;11.858;2024-01-16T06:15:06;7.07;;;2.10;;
58083;SDS011;43882;51.550;11.858;2024-01-16T06:17:33;6.43;;;1.90;;
58083;SDS011;43882;51.550;11.858;2024-01-16T06:19:59;8.32;;;2.10;;
58083;SDS011;43882;51.550;11.858;2024-01-16T06:22:25;10.95;;;2.42;;
58083;SDS011;43882;51.550;11.858;2024-01-16T06:24:51;8.25;;;1.88;;
58083;SDS011;43882;51.550;11.858;2024-01-16T06:27:17;8.68;;;2.10;;
58083;SDS011;43882;51.550;11.858;2024-01-16T06:29:46;12.15;;;2.65;;
58083;SDS011;43882;51.550;11.858;2024-01-16T06:32:13;9.23;;;2.28;;
58083;SDS011;43882;51.550;11.858;2024-01-16T06:34:39;12.77;;;2.58;;
58083;SDS011;43882;51.550;11.858;2024-01-16T06:37:05;11.00;;;2.97;;
58083;SDS011;43882;51.550;11.858;2024-01-16T06:39:31;14.95;;;3.22;;
58083;SDS011;43882;51.550;11.858;2024-01-16T06:41:58;13.75;;;3.20;;
58083;SDS011;43882;51.550;11.858;2024-01-16T06:44:24;12.52;;;3.20;;
58083;SDS011;43882;51.550;11.858;2024-01-16T06:46:50;13.90;;;3.50;;
58083;SDS011;43882;51.550;11.858;2024-01-16T06:49:16;19.08;;;5.07;;
58083;SDS011;43882;51.550;11.858;2024-01-16T06:51:42;17.67;;;4.30;;
58083;SDS011;43882;51.550;11.858;2024-01-16T06:54:08;14.18;;;4.18;;
58083;SDS011;43882;51.550;11.858;2024-01-16T06:56:34;14.95;;;4.10;;
58083;SDS011;43882;51.550;11.858;2024-01-16T06:59:00;17.05;;;4.30;;
58083;SDS011;43882;51.550;11.858;2024-01-16T07:01:26;16.60;;;4.28;;
58083;SDS011;43882;51.550;11.858;2024-01-16T07:03:53;14.15;;;3.88;;
58083;SDS011;43882;51.550;11.858;2024-01-16T07:06:19;16.70;;;4.78;;
58083;SDS011;43882;51.550;11.858;2024-01-16T07:08:45;16.85;;;5.07;;
58083;SDS011;43882;51.550;11.858;2024-01-16T07:11:11;19.38;;;4.93;;
58083;SDS011;43882;51.550;11.858;2024-01-16T07:13:39;15.13;;;4.43;;
58083;SDS011;43882;51.550;11.858;2024-01-16T07:16:06;17.77;;;4.72;;
58083;SDS011;43882;51.550;11.858;2024-01-16T07:18:36;23.50;;;4.70;;
58083;SDS011;43882;51.550;11.858;2024-01-16T07:21:02;17.15;;;4.88;;
58083;SDS011;43882;51.550;11.858;2024-01-16T07:23:29;19.13;;;5.05;;
58083;SDS011;43882;51.550;11.858;2024-01-16T07:25:55;18.23;;;4.30;;
58083;SDS011;43882;51.550;11.858;2024-01-16T07:28:21;19.17;;;5.03;;
58083;SDS011;43882;51.550;11.858;2024-01-16T07:30:48;19.63;;;5.03;;
58083;SDS011;43882;51.550;11.858;2024-01-16T07:33:14;16.63;;;4.90;;
58083;SDS011;43882;51.550;11.858;2024-01-16T07:35:40;18.85;;;4.75;;
58083;SDS011;43882;51.550;11.858;2024-01-16T07:38:08;18.30;;;5.00;;
58083;SDS011;43882;51.550;11.858;2024-01-16T07:40:34;19.60;;;4.72;;
58083;SDS011;43882;51.550;11.858;2024-01-16T07:43:01;16.08;;;4.65;;
58083;SDS011;43882;51.550;11.858;2024-01-16T07:45:27;18.90;;;5.20;;
58083;SDS011;43882;51.550;11.858;2024-01-16T07:47:53;21.08;;;5.45;;
58083;SDS011;43882;51.550;11.858;2024-01-16T07:50:19;19.83;;;5.35;;
58083;SDS011;43882;51.550;11.858;2024-01-16T07:52:45;19.08;;;5.50;;
58083;SDS011;43882;51.550;11.858;2024-01-16T07:55:11;18.08;;;4.93;;
58083;SDS011;43882;51.550;11.858;2024-01-16T07:57:37;18.60;;;5.28;;
58083;SDS011;43882;51.550;11.858;2024-01-16T08:00:03;17.42;;;4.70;;
58083;SDS011;43882;51.550;11.858;2024-01-16T08:02:34;18.52;;;5.07;;
58083;SDS011;43882;51.550;11.858;2024-01-16T08:05:01;18.92;;;5.35;;
58083;SDS011;43882;51.550;11.858;2024-01-16T08:07:27;20.05;;;5.30;;
58083;SDS011;43882;51.550;11.858;2024-01-16T08:09:53;18.73;;;5.07;;
58083;SDS011;43882;51.550;11.858;2024-01-16T08:12:19;19.42;;;6.00;;
58083;SDS011;43882;51.550;11.858;2024-01-16T08:14:45;20.60;;;6.28;;
58083;SDS011;43882;51.550;11.858;2024-01-16T08:17:11;20.33;;;6.75;;
58083;SDS011;43882;51.550;11.858;2024-01-16T08:19:37;22.45;;;7.50;;
58083;SDS011;43882;51.550;11.858;2024-01-16T08:22:03;21.70;;;7.15;;
58083;SDS011;43882;51.550;11.858;2024-01-16T08:24:30;20.27;;;6.57;;
58083;SDS011;43882;51.550;11.858;2024-01-16T08:26:56;19.45;;;6.20;;
58083;SDS011;43882;51.550;11.858;2024-01-16T08:29:23;20.55;;;6.65;;
58083;SDS011;43882;51.550;11.858;2024-01-16T08:31:49;23.88;;;7.05;;
58083;SDS011;43882;51.550;11.858;2024-01-16T08:34:17;22.05;;;6.28;;
58083;SDS011;43882;51.550;11.858;2024-01-16T08:36:43;20.88;;;7.18;;
58083;SDS011;43882;51.550;11.858;2024-01-16T08:39:09;20.48;;;6.18;;
58083;SDS011;43882;51.550;11.858;2024-01-16T08:41:36;17.50;;;6.07;;
58083;SDS011;43882;51.550;11.858;2024-01-16T08:44:02;21.25;;;7.03;;
58083;SDS011;43882;51.550;11.858;2024-01-16T08:46:29;18.80;;;6.60;;
58083;SDS011;43882;51.550;11.858;2024-01-16T08:48:56;21.48;;;7.80;;
58083;SDS011;43882;51.550;11.858;2024-01-16T08:51:22;18.33;;;6.53;;
58083;SDS011;43882;51.550;11.858;2024-01-16T08:53:49;20.55;;;6.20;;
58083;SDS011;43882;51.550;11.858;2024-01-16T08:56:15;19.27;;;6.75;;
58083;SDS011;43882;51.550;11.858;2024-01-16T08:58:42;21.83;;;6.80;;
58083;SDS011;43882;51.550;11.858;2024-01-16T09:01:08;19.67;;;6.28;;
58083;SDS011;43882;51.550;11.858;2024-01-16T09:03:35;17.80;;;5.32;;
58083;SDS011;43882;51.550;11.858;2024-01-16T09:06:02;19.75;;;5.40;;
58083;SDS011;43882;51.550;11.858;2024-01-16T09:08:28;14.68;;;4.78;;
58083;SDS011;43882;51.550;11.858;2024-01-16T09:10:55;20.67;;;6.43;;
58083;SDS011;43882;51.550;11.858;2024-01-16T09:13:21;20.05;;;6.50;;
58083;SDS011;43882;51.550;11.858;2024-01-16T09:15:48;18.35;;;6.57;;
58083;SDS011;43882;51.550;11.858;2024-01-16T09:18:15;18.60;;;6.65;;
58083;SDS011;43882;51.550;11.858;2024-01-16T09:20:42;17.85;;;5.43;;
58083;SDS011;43882;51.550;11.858;2024-01-16T09:23:08;17.17;;;5.15;;
58083;SDS011;43882;51.550;11.858;2024-01-16T09:25:35;17.27;;;5.20;;
58083;SDS011;43882;51.550;11.858;2024-01-16T09:28:01;17.90;;;5.07;;
58083;SDS011;43882;51.550;11.858;2024-01-16T09:30:27;17.75;;;5.00;;
58083;SDS011;43882;51.550;11.858;2024-01-16T09:32:53;18.45;;;5.13;;
58083;SDS011;43882;51.550;11.858;2024-01-16T09:35:19;17.85;;;5.05;;
58083;SDS011;43882;51.550;11.858;2024-01-16T09:37:47;17.17;;;5.13;;
58083;SDS011;43882;51.550;11.858;2024-01-16T09:40:13;18.77;;;6.97;;
58083;SDS011;43882;51.550;11.858;2024-01-16T09:42:39;23.35;;;11.57;;
58083;SDS011;43882;51.550;11.858;2024-01-16T09:45:06;17.90;;;5.85;;
58083;SDS011;43882;51.550;11.858;2024-01-16T09:47:33;23.17;;;7.43;;
58083;SDS011;43882;51.550;11.858;2024-01-16T09:49:59;21.20;;;5.65;;
58083;SDS011;43882;51.550;11.858;2024-01-16T09:52:28;17.45;;;5.30;;
58083;SDS011;43882;51.550;11.858;2024-01-16T09:54:54;17.58;;;5.07;;
58083;SDS011;43882;51.550;11.858;2024-01-16T09:57:22;18.52;;;4.78;;
58083;SDS011;43882;51.550;11.858;2024-01-16T09:59:50;18.42;;;4.63;;
58083;SDS011;43882;51.550;11.858;2024-01-16T10:02:17;17.85;;;4.25;;
58083;SDS011;43882;51.550;11.858;2024-01-16T10:04:46;21.48;;;6.55;;
58083;SDS011;43882;51.550;11.858;2024-01-16T10:07:12;19.40;;;6.38;;
58083;SDS011;43882;51.550;11.858;2024-01-16T10:09:39;17.35;;;5.30;;
58083;SDS011;43882;51.550;11.858;2024-01-16T10:12:05;21.92;;;6.55;;
58083;SDS011;43882;51.550;11.858;2024-01-16T10:14:33;22.83;;;6.80;;
58083;SDS011;43882;51.550;11.858;2024-01-16T10:17:02;18.73;;;5.10;;
58083;SDS011;43882;51.550;11.858;2024-01-16T10:20:13;17.63;;;5.30;;
58083;SDS011;43882;51.550;11.858;2024-01-16T10:22:38;19.63;;;5.25;;
58083;SDS011;43882;51.550;11.858;2024-01-16T10:25:05;18.63;;;4.97;;
58083;SDS011;43882;51.550;11.858;2024-01-16T10:27:41;17.70;;;5.13;;
58083;SDS011;43882;51.550;11.858;2024-01-16T10:30:08;16.85;;;4.72;;
58083;SDS011;43882;51.550;11.858;2024-01-16T10:32:38;16.50;;;4.75;;
58083;SDS011;43882;51.550;11.858;2024-01-16T10:35:07;19.17;;;5.07;;
58083;SDS011;43882;51.550;11.858;2024-01-16T10:40:10;18.80;;;5.32;;
58083;SDS011;43882;51.550;11.858;2024-01-16T10:42:59;17.52;;;5.13;;
58083;SDS011;43882;51.550;11.858;2024-01-16T10:45:29;17.67;;;4.45;;
58083;SDS011;43882;51.550;11.858;2024-01-16T10:52:54;16.83;;;4.15;;
58083;SDS011;43882;51.550;11.858;2024-01-16T10:55:21;18.02;;;5.07;;
58083;SDS011;43882;51.550;11.858;2024-01-16T10:57:49;22.55;;;8.02;;
58083;SDS011;43882;51.550;11.858;2024-01-16T11:00:17;16.75;;;4.53;;
58083;SDS011;43882;51.550;11.858;2024-01-16T11:02:49;19.75;;;6.43;;
58083;SDS011;43882;51.550;11.858;2024-01-16T11:05:16;17.77;;;6.80;;
58083;SDS011;43882;51.550;11.858;2024-01-16T11:07:43;23.65;;;13.73;;
58083;SDS011;43882;51.550;11.858;2024-01-16T11:10:09;22.27;;;11.63;;
58083;SDS011;43882;51.550;11.858;2024-01-16T11:12:39;17.50;;;4.68;;
58083;SDS011;43882;51.550;11.858;2024-01-16T11:15:06;20.75;;;6.38;;
58083;SDS011;43882;51.550;11.858;2024-01-16T11:17:34;16.58;;;4.20;;
58083;SDS011;43882;51.550;11.858;2024-01-16T11:20:00;18.13;;;4.70;;
58083;SDS011;43882;51.550;11.858;2024-01-16T11:22:31;17.90;;;5.15;;
58083;SDS011;43882;51.550;11.858;2024-01-16T11:25:10;17.70;;;5.25;;
58083;SDS011;43882;51.550;11.858;2024-01-16T11:27:37;15.77;;;4.10;;
58083;SDS011;43882;51.550;11.858;2024-01-16T11:30:07;15.77;;;5.20;;
58083;SDS011;43882;51.550;11.858;2024-01-16T11:32:35;18.50;;;4.40;;
58083;SDS011;43882;51.550;11.858;2024-01-16T11:35:09;14.20;;;4.45;;
58083;SDS011;43882;51.550;11.858;2024-01-16T11:37:36;16.35;;;4.05;;
58083;SDS011;43882;51.550;11.858;2024-01-16T11:42:45;14.88;;;3.90;;
58083;SDS011;43882;51.550;11.858;2024-01-16T11:45:47;16.58;;;4.40;;
58083;SDS011;43882;51.550;11.858;2024-01-16T11:50:36;14.52;;;3.85;;
58083;SDS011;43882;51.550;11.858;2024-01-16T11:53:02;19.23;;;4.15;;
58083;SDS011;43882;51.550;11.858;2024-01-16T11:56:15;16.08;;;4.38;;
58083;SDS011;43882;51.550;11.858;2024-01-16T12:01:18;17.27;;;4.32;;
58083;SDS011;43882;51.550;11.858;2024-01-16T12:04:08;16.33;;;4.30;;
58083;SDS011;43882;51.550;11.858;2024-01-16T12:06:35;16.42;;;5.60;;
58083;SDS011;43882;51.550;11.858;2024-01-16T12:11:38;17.60;;;4.78;;
58083;SDS011;43882;51.550;11.858;2024-01-16T12:14:13;16.10;;;4.68;;
58083;SDS011;43882;51.550;11.858;2024-01-16T12:16:39;19.13;;;5.43;;
58083;SDS011;43882;51.550;11.858;2024-01-16T12:19:08;16.85;;;4.95;;
58083;SDS011;43882;51.550;11.858;2024-01-16T12:21:41;16.20;;;4.40;;
58083;SDS011;43882;51.550;11.858;2024-01-16T12:24:11;20.50;;;5.82;;
58083;SDS011;43882;51.550;11.858;2024-01-16T12:26:37;15.98;;;4.85;;
58083;SDS011;43882;51.550;11.858;2024-01-16T12:29:04;16.33;;;5.38;;
58083;SDS011;43882;51.550;11.858;2024-01-16T12:31:31;17.30;;;4.75;;
58083;SDS011;43882;51.550;11.858;2024-01-16T12:34:06;18.27;;;4.45;;
58083;SDS011;43882;51.550;11.858;2024-01-16T12:36:33;18.30;;;4.97;;
58083;SDS011;43882;51.550;11.858;2024-01-16T12:38:59;14.80;;;4.65;;
58083;SDS011;43882;51.550;11.858;2024-01-16T12:41:26;16.02;;;4.75;;
58083;SDS011;43882;51.550;11.858;2024-01-16T12:43:55;16.67;;;4.72;;
58083;SDS011;43882;51.550;11.858;2024-01-16T12:46:21;18.73;;;5.93;;
58083;SDS011;43882;51.550;11.858;2024-01-16T12:48:48;18.98;;;5.18;;
58083;SDS011;43882;51.550;11.858;2024-01-16T12:51:19;16.77;;;4.70;;
58083;SDS011;43882;51.550;11.858;2024-01-16T12:53:49;16.67;;;4.97;;
58083;SDS011;43882;51.550;11.858;2024-01-16T12:56:18;18.10;;;6.43;;
58083;SDS011;43882;51.550;11.858;2024-01-16T12:58:47;18.73;;;5.63;;
58083;SDS011;43882;51.550;11.858;2024-01-16T13:01:23;18.25;;;5.72;;
58083;SDS011;43882;51.550;11.858;2024-01-16T13:03:53;23.55;;;9.15;;
58083;SDS011;43882;51.550;11.858;2024-01-16T13:06:20;17.83;;;6.30;;
58083;SDS011;43882;51.550;11.858;2024-01-16T13:08:47;19.95;;;6.25;;
58083;SDS011;43882;51.550;11.858;2024-01-16T13:11:14;20.92;;;5.90;;
58083;SDS011;43882;51.550;11.858;2024-01-16T13:13:44;19.40;;;6.32;;
58083;SDS011;43882;51.550;11.858;2024-01-16T13:16:12;18.15;;;5.38;;
58083;SDS011;43882;51.550;11.858;2024-01-16T13:18:38;16.90;;;5.82;;
58083;SDS011;43882;51.550;11.858;2024-01-16T13:21:04;19.13;;;6.10;;
58083;SDS011;43882;51.550;11.858;2024-01-16T13:23:30;17.40;;;6.03;;
58083;SDS011;43882;51.550;11.858;2024-01-16T13:25:57;19.95;;;6.07;;
58083;SDS011;43882;51.550;11.858;2024-01-16T13:28:24;16.98;;;5.60;;
58083;SDS011;43882;51.550;11.858;2024-01-16T13:30:50;20.63;;;7.10;;
58083;SDS011;43882;51.550;11.858;2024-01-16T13:33:17;20.75;;;6.30;;
58083;SDS011;43882;51.550;11.858;2024-01-16T13:35:44;20.08;;;6.50;;
58083;SDS011;43882;51.550;11.858;2024-01-16T13:38:13;21.33;;;6.43;;
58083;SDS011;43882;51.550;11.858;2024-01-16T13:40:44;20.63;;;6.32;;
58083;SDS011;43882;51.550;11.858;2024-01-16T13:43:10;18.50;;;5.88;;
58083;SDS011;43882;51.550;11.858;2024-01-16T13:45:39;18.17;;;5.63;;
58083;SDS011;43882;51.550;11.858;2024-01-16T13:48:07;17.80;;;5.50;;
58083;SDS011;43882;51.550;11.858;2024-01-16T13:50:33;17.88;;;5.60;;
58083;SDS011;43882;51.550;11.858;2024-01-16T13:53:00;20.77;;;6.60;;
58083;SDS011;43882;51.550;11.858;2024-01-16T13:55:29;18.20;;;5.55;;
58083;SDS011;43882;51.550;11.858;2024-01-16T13:57:56;18.13;;;5.65;;
58083;SDS011;43882;51.550;11.858;2024-01-16T14:00:23;16.48;;;5.57;;
58083;SDS011;43882;51.550;11.858;2024-01-16T14:02:49;18.30;;;5.28;;
58083;SDS011;43882;51.550;11.858;2024-01-16T14:05:17;19.92;;;5.57;;
58083;SDS011;43882;51.550;11.858;2024-01-16T14:07:49;19.88;;;5.78;;
58083;SDS011;43882;51.550;11.858;2024-01-16T14:12:44;15.20;;;4.75;;
58083;SDS011;43882;51.550;11.858;2024-01-16T14:15:11;17.77;;;5.40;;
58083;SDS011;43882;51.550;11.858;2024-01-16T14:17:44;19.10;;;5.43;;
58083;SDS011;43882;51.550;11.858;2024-01-16T14:20:11;19.17;;;5.45;;
58083;SDS011;43882;51.550;11.858;2024-01-16T14:22:38;18.35;;;6.07;;
58083;SDS011;43882;51.550;11.858;2024-01-16T14:25:05;18.63;;;5.50;;
58083;SDS011;43882;51.550;11.858;2024-01-16T14:27:39;27.85;;;10.10;;
58083;SDS011;43882;51.550;11.858;2024-01-16T14:30:07;18.27;;;5.65;;
58083;SDS011;43882;51.550;11.858;2024-01-16T14:32:35;17.75;;;5.55;;
58083;SDS011;43882;51.550;11.858;2024-01-16T14:35:05;18.67;;;5.35;;
58083;SDS011;43882;51.550;11.858;2024-01-16T14:37:32;20.13;;;6.07;;
58083;SDS011;43882;51.550;11.858;2024-01-16T14:39:59;19.33;;;5.90;;
58083;SDS011;43882;51.550;11.858;2024-01-16T14:42:28;17.67;;;6.95;;
58083;SDS011;43882;51.550;11.858;2024-01-16T14:44:54;18.05;;;6.80;;